Weather observations for the past three days for
New Stuyahok
| Date | Time (akdt) | Wind (kph) | Vis. (km) | Weather | Sky Cond. | Temperature (ºC) | Relative Humidity | Wind Chill (°C) | Heat Index (°C) | Pressure | Precipitation (cm) | ||||||
|---|---|---|---|---|---|---|---|---|---|---|---|---|---|---|---|---|---|
| Air | Dwpt | 6 hour | altimeter (cm) | sea level (mb) | 1 hr | 3 hr | 6 hr | ||||||||||
| Max. | Min. | ||||||||||||||||
| 04 | 06:56 | S 15 | 16.09 | Light Rain | BKN028 BKN042 OVC060 | 13.3 | 13.3 | 100% | 76.07 | 1014.6 | 0.05 | ||||||
| 04 | 05:56 | S 15 | 16.09 | Light Rain | BKN026 OVC060 | 13.3 | 13.3 | 100% | 76.1 | 1014.8 | 0.05 | ||||||
| 04 | 04:56 | S 15 | 14.48 | Light Rain | BKN018 OVC023 | 13.3 | 12.8 | 97% | 76.12 | 1015.2 | |||||||
| 04 | 03:56 | S 15 | 16.09 | Mostly Cloudy | SCT090 BKN110 | 13.3 | 12.8 | 15.6 | 13.3 | 97% | 76.12 | 1015.4 | 0.03 | ||||
| 04 | 02:56 | S 19 G 30 | 16.09 | Overcast | OVC080 | 13.3 | 12.8 | 97% | 76.17 | 1015.8 | |||||||
| 04 | 01:56 | S 17 G 26 | 16.09 | Light Rain | FEW055 BKN085 OVC110 | 13.3 | 12.8 | 97% | 76.17 | 1015.7 | 0.03 | ||||||
| 04 | 00:56 | S 17 G 28 | 16.09 | Light Rain | FEW042 BKN060 OVC080 | 13.9 | 12.2 | 90% | 76.15 | 1015.6 | |||||||
| 03 | 23:56 | S 17 | 16.09 | Overcast | SCT041 BKN050 OVC075 | 14.4 | 12.8 | 90% | 76.2 | 1016.1 | |||||||
| 03 | 22:56 | S 17 | 16.09 | Overcast | OVC045 | 14.4 | 13.3 | 93% | 76.2 | 1016.3 | |||||||
| 03 | 21:56 | S 13 G 26 | 16.09 | Overcast | OVC041 | 15.6 | 13.3 | 17.8 | 15 | 86% | 76.2 | 1016.1 | |||||
| 03 | 20:56 | S 13 | 16.09 | Light Rain | OVC041 | 15.6 | 13.9 | 90% | 76.17 | 1016.0 | |||||||
| 03 | 19:56 | S 19 G 28 | 16.09 | Overcast | OVC043 | 17.2 | 13.3 | 78% | 76.17 | 1015.9 | |||||||
| 03 | 18:56 | S 17 G 30 | 16.09 | Overcast | OVC039 | 17.8 | 13.9 | 78% | 76.2 | 1016.2 | |||||||
| 03 | 17:56 | S 15 | 16.09 | Overcast | OVC033 | 17.8 | 13.9 | 78% | 76.23 | 1016.4 | |||||||
| 03 | 16:56 | S 17 | 16.09 | Overcast | OVC035 | 17.8 | 13.3 | 75% | 76.25 | 1016.7 | |||||||
| 03 | 15:56 | S 15 | 16.09 | Overcast | OVC037 | 17.2 | 13.3 | 17.2 | 12.2 | 78% | 76.28 | 1017.2 | 0.03 | ||||
| 03 | 14:56 | S 17 G 30 | 16.09 | Overcast | OVC035 | 16.1 | 13.9 | 87% | 76.28 | 1017.4 | |||||||
| 03 | 13:56 | S 20 G 31 | 16.09 | Partly Cloudy | SCT011 SCT031 | 16.1 | 14.4 | 90% | 76.3 | 1017.6 | 0.03 | ||||||
| 03 | 12:56 | SE 15 | 16.09 | Mostly Cloudy | BKN003 | 15 | 15 | 100% | 76.28 | 1017.4 | |||||||
| 03 | 11:56 | S 13 | 16.09 | Overcast | OVC003 | 13.9 | 13.9 | 100% | 76.3 | 1017.5 | |||||||
| 03 | 10:56 | S 11 | 0.40 | Fog | OVC003 | 12.8 | 12.8 | 100% | 76.3 | 1017.6 | |||||||
| 03 | 09:56 | S 11 | 0.40 | Light Rain Fog | OVC003 | 12.2 | 12.2 | 12.2 | 11.1 | 100% | 76.3 | 1017.8 | 0.03 | 0.05 | |||
| 03 | 08:56 | S 9 | 0.40 | Light Rain Fog | OVC003 | 12.2 | 12.2 | 100% | 76.3 | 1017.6 | 0.03 | ||||||
| 03 | 07:56 | S 7 | 1.21 | Light Rain Fog/Mist | OVC003 | 11.7 | 11.7 | 100% | 76.3 | 1017.7 | |||||||
| 03 | 05:56 | S 13 | 0.80 | Fog | OVC003 | 11.7 | 11.7 | 100% | 76.35 | 1018.2 | |||||||
| 03 | 04:56 | S 9 | 0.40 | Fog | OVC003 | 11.7 | 11.7 | 100% | 76.33 | 1018.1 | |||||||
| 03 | 03:56 | S 7 | 0.40 | Fog | OVC003 | 11.1 | 11.1 | 11.1 | 11.1 | 100% | 76.35 | 1018.4 | |||||
| 03 | 02:56 | S 7 | 0.40 | Fog | OVC003 | 11.1 | 11.1 | 100% | 76.35 | 1018.4 | |||||||
| 03 | 01:56 | S 13 | 3.22 | Fog/Mist | OVC003 | 11.1 | 11.1 | 100% | 76.35 | 1018.5 | |||||||
| 03 | 00:56 | S 13 | 0.80 | Fog | OVC003 | 11.1 | 11.1 | 100% | 76.35 | 1018.4 | |||||||
| 02 | 23:56 | S 6 | 0.40 | Fog | OVC003 | 11.1 | 11.1 | 100% | 76.35 | 1018.5 | |||||||
| 02 | 22:56 | S 6 | 16.09 | Overcast | SCT003 BKN008 OVC013 | 11.1 | 10.6 | 97% | 76.35 | 1018.4 | |||||||
| 02 | 21:56 | S 11 | 16.09 | Overcast | FEW010 SCT031 OVC040 | 11.1 | 10.6 | 14.4 | 11.1 | 97% | 76.35 | 1018.3 | |||||
| 02 | 20:56 | S 11 | 16.09 | Overcast | BKN020 OVC034 | 12.2 | 9.4 | 83% | 76.33 | 1018.1 | |||||||
| 02 | 19:56 | S 17 | 16.09 | Overcast | OVC036 | 13.3 | 6.1 | 62% | 76.33 | 1017.9 | |||||||
| 02 | 18:56 | SW 13 | 16.09 | Overcast | OVC028 | 13.9 | 7.8 | 67% | 76.3 | 1017.9 | |||||||
| 02 | 17:56 | S 9 | 16.09 | Overcast | OVC036 | 14.4 | 7.2 | 62% | 76.3 | 1017.9 | |||||||
| 02 | 16:56 | S 11 | 16.09 | Overcast | OVC044 | 13.9 | 5.6 | 58% | 76.3 | 1017.7 | |||||||
| 02 | 15:56 | SW 9 | 16.09 | Overcast | OVC048 | 13.3 | 4.4 | 13.9 | 7.2 | 55% | 76.3 | 1017.6 | |||||
| 02 | 14:56 | SW 13 | 16.09 | Overcast | OVC060 | 13.3 | 5 | 57% | 76.28 | 1017.5 | |||||||
| 02 | 13:56 | S 13 | 16.09 | Overcast | OVC070 | 12.8 | 2.8 | 51% | 76.3 | 1017.6 | |||||||
| 02 | 12:56 | SE 6 | 16.09 | Overcast | OVC095 | 12.2 | 3.3 | 55% | 76.33 | 1018.1 | |||||||
| 02 | 11:56 | Calm | 16.09 | Mostly Cloudy | BKN110 | 11.7 | 3.3 | 57% | 76.25 | 1017.2 | |||||||
| 02 | 10:56 | N 7 | 16.09 | A Few Clouds | FEW120 | 10 | 3.3 | 63% | 9 | 76.25 | 1017.2 | ||||||
| 02 | 09:56 | N 11 | 16.09 | Fair | CLR | 7.2 | 3.3 | 7.8 | 3.9 | 77% | 5 | 76.2 | 1016.5 | ||||
| 02 | 08:56 | N 7 | 16.09 | Fair | CLR | 5.6 | 3.9 | 89% | 4 | 76.17 | 1016.2 | ||||||
| 02 | 07:56 | N 11 | 16.09 | Fair | CLR | 4.4 | 3.9 | 97% | 2 | 76.07 | 1014.8 | ||||||
| 02 | 06:56 | N 9 | 16.09 | Fair | CLR | 5.6 | 3.9 | 89% | 4 | 76.07 | 1014.8 | ||||||
| 02 | 05:56 | N 9 | 16.09 | Fair | CLR | 5.6 | 5 | 96% | 4 | 76.05 | 1014.2 | ||||||
| 02 | 04:56 | NW 6 | 16.09 | Fair | CLR | 6.7 | 5.6 | 93% | 76 | 1013.6 | |||||||
| 02 | 03:56 | N 6 | 16.09 | Mostly Cloudy | BKN110 | 7.8 | 6.1 | 10 | 7.8 | 89% | 75.95 | 1013.1 | |||||
| 02 | 02:56 | W 9 | 16.09 | Overcast | OVC110 | 7.8 | 6.1 | 89% | 6 | 75.92 | 1012.6 | ||||||
| 02 | 01:56 | W 9 | 16.09 | Overcast | OVC120 | 7.8 | 6.1 | 89% | 6 | 75.9 | 1012.3 | ||||||
| 02 | 00:56 | W 9 | 16.09 | Overcast | OVC110 | 7.8 | 6.1 | 89% | 6 | 75.9 | 1012.2 | ||||||
| 01 | 23:56 | W 7 | 16.09 | Partly Cloudy | SCT110 | 8.3 | 6.1 | 86% | 7 | 75.87 | 1012.0 | ||||||
| 01 | 22:56 | W 9 | 16.09 | Fair | CLR | 9.4 | 6.1 | 80% | 8 | 75.84 | 1011.6 | ||||||
| 01 | 21:56 | W 11 | 16.09 | Partly Cloudy | SCT110 | 10 | 5.6 | 13.9 | 10 | 74% | 9 | 75.82 | 1011.4 | ||||
| 01 | 20:56 | W 7 | 16.09 | Fair | CLR | 11.7 | 5 | 64% | 75.79 | 1010.8 | |||||||
| 01 | 19:56 | W 9 | 16.09 | A Few Clouds | FEW100 | 12.8 | 4.4 | 57% | 75.79 | 1011.0 | |||||||
| 01 | 18:56 | W 9 | 16.09 | Fair | CLR | 13.3 | 3.9 | 53% | 75.82 | 1011.1 | |||||||
| 01 | 17:56 | N 9 | 16.09 | A Few Clouds | FEW120 | 13.3 | 2.2 | 47% | 75.79 | 1011.1 | |||||||
| 01 | 16:56 | N 9 | 16.09 | Fair | CLR | 13.9 | 2.2 | 45% | 75.79 | 1010.8 | |||||||
| 01 | 15:56 | Vrbl 7 | 16.09 | Fair | CLR | 12.8 | 2.2 | 13.3 | 6.1 | 49% | 75.82 | 1011.2 | |||||
| 01 | 14:56 | Vrbl 11 | 16.09 | Fair | CLR | 12.2 | 2.8 | 53% | 75.79 | 1011.1 | |||||||
| 01 | 13:56 | N 13 | 16.09 | Fair | CLR | 11.1 | 2.2 | 55% | 75.82 | 1011.2 | |||||||
| 01 | 12:56 | N 9 | 16.09 | Mostly Cloudy | BKN120 | 10.6 | 2.8 | 59% | 75.82 | 1011.3 | |||||||
| 01 | 11:56 | N 9 | 16.09 | Overcast | OVC100 | 9.4 | 2.2 | 61% | 8 | 75.84 | 1011.6 | ||||||
| 01 | 10:56 | N 9 | 16.09 | Overcast | OVC100 | 7.2 | 3.3 | 77% | 6 | 75.84 | 1011.7 | ||||||
| 01 | 09:56 | N 9 | 16.09 | A Few Clouds | FEW100 | 6.1 | 3.3 | 6.1 | 3.9 | 82% | 4 | 75.84 | 1011.7 | ||||
| 01 | 08:56 | N 11 | 16.09 | Fair | CLR | 5 | 2.8 | 86% | 3 | 75.84 | 1011.6 | ||||||
| 01 | 07:56 | N 9 | 16.09 | A Few Clouds | FEW110 | 4.4 | 2.2 | 86% | 2 | 75.84 | 1011.8 | ||||||
| Date | Time (akdt) | Wind (kph) | Vis. (km) | Weather | Sky Cond. | Air | Dwpt | Max. | Min. | Relative Humidity | Wind Chill (°C) | Heat Index (°C) | altimeter (cm) | sea level (mb) | 1 hr | 3 hr | 6 hr |
| 6 hour | |||||||||||||||||
| Temperature (ºC) | Pressure | Precipitation (cm) | |||||||||||||||